Reuben, Nebraska
Current Conditions -  °F | °C
As of 8:15 AM on Thursday 27 Nov 2014 (Local Time) from KHDE Reporting Station
Clear Clear  
Wind Chill: -11°   Ceiling: Unl
Heat Index: -7°   Visibility: 10mi
Dew Point: -9°   Wind: 5mph
Humidity: 87%   Direction: 130°SE
Pressure: 30.37"   Gusts: NA
Location:  40.2849°N, 99.6171°W
Report Text: KHDE 271415Z AUTO 13004KT 10SM CLR M07/M09 A3037 RMK AO2 T10701089
Loading
Personal Weather Stations






























Interactive Weather Map New forecast layout! Learn more

10-Day Weather Forecast

Advertisements
Track Severe Weather on mobile